sensor_id;sensor_type;location;lat;lon;timestamp;temperature;humidity
8792;DHT22;4432;50.890;4.744;2023-02-02T00:00:47;8.70;99.90
8792;DHT22;4432;50.890;4.744;2023-02-02T00:03:14;8.70;99.90
8792;DHT22;4432;50.890;4.744;2023-02-02T00:05:47;8.70;99.90
8792;DHT22;4432;50.890;4.744;2023-02-02T00:08:17;8.70;99.90
8792;DHT22;4432;50.890;4.744;2023-02-02T00:10:44;8.70;99.90
8792;DHT22;4432;50.890;4.744;2023-02-02T00:13:10;8.70;99.90
8792;DHT22;4432;50.890;4.744;2023-02-02T00:15:36;8.70;99.90
8792;DHT22;4432;50.890;4.744;2023-02-02T00:18:02;8.80;99.90
8792;DHT22;4432;50.890;4.744;2023-02-02T00:20:28;8.70;99.90
8792;DHT22;4432;50.890;4.744;2023-02-02T00:22:55;8.80;99.90
8792;DHT22;4432;50.890;4.744;2023-02-02T00:25:22;8.80;99.90
8792;DHT22;4432;50.890;4.744;2023-02-02T00:27:47;8.80;99.90
8792;DHT22;4432;50.890;4.744;2023-02-02T00:30:14;8.80;99.90
8792;DHT22;4432;50.890;4.744;2023-02-02T00:32:39;8.70;99.90
8792;DHT22;4432;50.890;4.744;2023-02-02T00:35:06;8.80;99.90
8792;DHT22;4432;50.890;4.744;2023-02-02T00:37:33;8.80;99.90
8792;DHT22;4432;50.890;4.744;2023-02-02T00:39:59;8.70;99.90
8792;DHT22;4432;50.890;4.744;2023-02-02T00:42:24;8.70;99.90
8792;DHT22;4432;50.890;4.744;2023-02-02T00:44:50;8.70;99.90
8792;DHT22;4432;50.890;4.744;2023-02-02T00:47:34;8.70;99.90
8792;DHT22;4432;50.890;4.744;2023-02-02T00:50:00;8.70;99.90
8792;DHT22;4432;50.890;4.744;2023-02-02T00:52:26;8.70;99.90
8792;DHT22;4432;50.890;4.744;2023-02-02T00:54:52;8.80;99.90
8792;DHT22;4432;50.890;4.744;2023-02-02T00:57:17;8.70;99.90
8792;DHT22;4432;50.890;4.744;2023-02-02T00:59:43;8.70;99.90
8792;DHT22;4432;50.890;4.744;2023-02-02T01:02:10;8.70;99.90
8792;DHT22;4432;50.890;4.744;2023-02-02T01:04:36;8.80;99.90
8792;DHT22;4432;50.890;4.744;2023-02-02T01:07:02;8.80;99.90
8792;DHT22;4432;50.890;4.744;2023-02-02T01:09:28;8.70;99.90
8792;DHT22;4432;50.890;4.744;2023-02-02T01:11:57;8.70;99.90
8792;DHT22;4432;50.890;4.744;2023-02-02T01:14:22;8.70;99.90
8792;DHT22;4432;50.890;4.744;2023-02-02T01:16:48;8.80;99.90
8792;DHT22;4432;50.890;4.744;2023-02-02T01:19:15;8.70;99.90
8792;DHT22;4432;50.890;4.744;2023-02-02T01:21:41;8.70;99.90
8792;DHT22;4432;50.890;4.744;2023-02-02T01:24:07;8.70;99.90
8792;DHT22;4432;50.890;4.744;2023-02-02T01:26:33;8.70;99.90
8792;DHT22;4432;50.890;4.744;2023-02-02T01:28:59;8.70;99.90
8792;DHT22;4432;50.890;4.744;2023-02-02T01:31:25;8.70;99.90
8792;DHT22;4432;50.890;4.744;2023-02-02T01:33:51;8.70;99.90
8792;DHT22;4432;50.890;4.744;2023-02-02T01:36:19;8.70;99.90
8792;DHT22;4432;50.890;4.744;2023-02-02T01:38:46;8.70;99.90
8792;DHT22;4432;50.890;4.744;2023-02-02T01:41:18;8.70;99.90
8792;DHT22;4432;50.890;4.744;2023-02-02T01:46:15;8.70;99.90
8792;DHT22;4432;50.890;4.744;2023-02-02T01:48:46;8.70;99.90
8792;DHT22;4432;50.890;4.744;2023-02-02T01:51:15;8.70;99.90
8792;DHT22;4432;50.890;4.744;2023-02-02T01:53:42;8.70;99.90
8792;DHT22;4432;50.890;4.744;2023-02-02T01:56:13;8.70;99.90
8792;DHT22;4432;50.890;4.744;2023-02-02T01:58:41;8.70;99.90
8792;DHT22;4432;50.890;4.744;2023-02-02T02:01:07;8.60;99.90
8792;DHT22;4432;50.890;4.744;2023-02-02T02:03:35;8.70;99.90
8792;DHT22;4432;50.890;4.744;2023-02-02T02:06:07;8.70;99.90
8792;DHT22;4432;50.890;4.744;2023-02-02T02:08:46;8.70;99.90
8792;DHT22;4432;50.890;4.744;2023-02-02T02:11:13;8.70;99.90
8792;DHT22;4432;50.890;4.744;2023-02-02T02:13:39;8.70;99.90
8792;DHT22;4432;50.890;4.744;2023-02-02T02:16:51;8.70;99.90
8792;DHT22;4432;50.890;4.744;2023-02-02T02:22:04;8.60;99.90
8792;DHT22;4432;50.890;4.744;2023-02-02T02:34:21;8.60;99.90
8792;DHT22;4432;50.890;4.744;2023-02-02T02:36:50;8.60;99.90
8792;DHT22;4432;50.890;4.744;2023-02-02T02:41:59;8.60;99.90
8792;DHT22;4432;50.890;4.744;2023-02-02T02:44:27;8.60;99.90
8792;DHT22;4432;50.890;4.744;2023-02-02T02:46:54;8.70;99.90
8792;DHT22;4432;50.890;4.744;2023-02-02T02:49:19;8.60;99.90
8792;DHT22;4432;50.890;4.744;2023-02-02T02:51:47;8.70;99.90
8792;DHT22;4432;50.890;4.744;2023-02-02T02:54:32;8.70;99.90
8792;DHT22;4432;50.890;4.744;2023-02-02T02:57:37;8.60;99.90
8792;DHT22;4432;50.890;4.744;2023-02-02T03:00:26;8.70;99.90
8792;DHT22;4432;50.890;4.744;2023-02-02T03:10:34;8.70;99.90
8792;DHT22;4432;50.890;4.744;2023-02-02T03:13:06;8.70;99.90
8792;DHT22;4432;50.890;4.744;2023-02-02T03:15:32;8.70;99.90
8792;DHT22;4432;50.890;4.744;2023-02-02T03:17:58;8.60;99.90
8792;DHT22;4432;50.890;4.744;2023-02-02T03:20:25;8.60;99.90
8792;DHT22;4432;50.890;4.744;2023-02-02T03:22:51;8.70;99.90
8792;DHT22;4432;50.890;4.744;2023-02-02T03:25:16;8.60;99.90
8792;DHT22;4432;50.890;4.744;2023-02-02T03:27:43;8.60;99.90
8792;DHT22;4432;50.890;4.744;2023-02-02T03:30:11;8.60;99.90
8792;DHT22;4432;50.890;4.744;2023-02-02T03:32:37;8.60;99.90
8792;DHT22;4432;50.890;4.744;2023-02-02T03:35:03;8.60;99.90
8792;DHT22;4432;50.890;4.744;2023-02-02T03:37:29;8.60;99.90
8792;DHT22;4432;50.890;4.744;2023-02-02T03:39:55;8.60;99.90
8792;DHT22;4432;50.890;4.744;2023-02-02T03:42:21;8.70;99.90
8792;DHT22;4432;50.890;4.744;2023-02-02T03:44:47;8.70;99.90
8792;DHT22;4432;50.890;4.744;2023-02-02T03:47:12;8.70;99.90
8792;DHT22;4432;50.890;4.744;2023-02-02T03:49:38;8.60;99.90
8792;DHT22;4432;50.890;4.744;2023-02-02T03:52:04;8.60;99.90
8792;DHT22;4432;50.890;4.744;2023-02-02T03:54:30;8.60;99.90
8792;DHT22;4432;50.890;4.744;2023-02-02T03:56:56;8.60;99.90
8792;DHT22;4432;50.890;4.744;2023-02-02T03:59:22;8.60;99.90
8792;DHT22;4432;50.890;4.744;2023-02-02T04:01:48;8.60;99.90
8792;DHT22;4432;50.890;4.744;2023-02-02T04:04:14;8.60;99.90
8792;DHT22;4432;50.890;4.744;2023-02-02T04:06:40;8.60;99.90
8792;DHT22;4432;50.890;4.744;2023-02-02T04:09:05;8.60;99.90
8792;DHT22;4432;50.890;4.744;2023-02-02T04:11:31;8.60;99.90
8792;DHT22;4432;50.890;4.744;2023-02-02T04:13:57;8.60;99.90
8792;DHT22;4432;50.890;4.744;2023-02-02T04:16:23;8.60;99.90
8792;DHT22;4432;50.890;4.744;2023-02-02T04:18:48;8.60;99.90
8792;DHT22;4432;50.890;4.744;2023-02-02T04:21:14;8.50;99.90
8792;DHT22;4432;50.890;4.744;2023-02-02T04:23:40;8.50;99.90
8792;DHT22;4432;50.890;4.744;2023-02-02T04:26:06;8.50;99.90
8792;DHT22;4432;50.890;4.744;2023-02-02T04:28:31;8.50;99.90
8792;DHT22;4432;50.890;4.744;2023-02-02T04:30:57;8.60;99.90
8792;DHT22;4432;50.890;4.744;2023-02-02T04:33:24;8.60;99.90
8792;DHT22;4432;50.890;4.744;2023-02-02T04:35:50;8.60;99.90
8792;DHT22;4432;50.890;4.744;2023-02-02T04:38:16;8.60;99.90
8792;DHT22;4432;50.890;4.744;2023-02-02T04:40:44;8.60;99.90
8792;DHT22;4432;50.890;4.744;2023-02-02T04:43:11;8.60;99.90
8792;DHT22;4432;50.890;4.744;2023-02-02T04:45:37;8.60;99.90
8792;DHT22;4432;50.890;4.744;2023-02-02T04:48:03;8.60;99.90
8792;DHT22;4432;50.890;4.744;2023-02-02T04:50:30;8.60;99.90
8792;DHT22;4432;50.890;4.744;2023-02-02T04:52:56;8.60;99.90
8792;DHT22;4432;50.890;4.744;2023-02-02T04:55:22;8.60;99.90
8792;DHT22;4432;50.890;4.744;2023-02-02T04:57:48;8.60;99.90
8792;DHT22;4432;50.890;4.744;2023-02-02T05:00:14;8.60;99.90
8792;DHT22;4432;50.890;4.744;2023-02-02T05:02:41;8.60;99.90
8792;DHT22;4432;50.890;4.744;2023-02-02T05:05:09;8.50;99.90
8792;DHT22;4432;50.890;4.744;2023-02-02T05:07:35;8.50;99.90
8792;DHT22;4432;50.890;4.744;2023-02-02T05:10:05;8.50;99.90
8792;DHT22;4432;50.890;4.744;2023-02-02T05:12:31;8.50;99.90
8792;DHT22;4432;50.890;4.744;2023-02-02T05:14:57;8.50;99.90
8792;DHT22;4432;50.890;4.744;2023-02-02T05:17:26;8.50;99.90
8792;DHT22;4432;50.890;4.744;2023-02-02T05:19:51;8.50;99.90
8792;DHT22;4432;50.890;4.744;2023-02-02T05:22:17;8.50;99.90
8792;DHT22;4432;50.890;4.744;2023-02-02T05:24:43;8.50;99.90
8792;DHT22;4432;50.890;4.744;2023-02-02T05:27:09;8.50;99.90
8792;DHT22;4432;50.890;4.744;2023-02-02T05:29:34;8.50;99.90
8792;DHT22;4432;50.890;4.744;2023-02-02T05:32:00;8.50;99.90
8792;DHT22;4432;50.890;4.744;2023-02-02T05:34:26;8.50;99.90
8792;DHT22;4432;50.890;4.744;2023-02-02T05:36:52;8.40;99.90
8792;DHT22;4432;50.890;4.744;2023-02-02T05:39:17;8.40;99.90
8792;DHT22;4432;50.890;4.744;2023-02-02T05:41:43;8.40;99.90
8792;DHT22;4432;50.890;4.744;2023-02-02T05:44:11;8.50;99.90
8792;DHT22;4432;50.890;4.744;2023-02-02T05:46:38;8.40;99.90
8792;DHT22;4432;50.890;4.744;2023-02-02T05:49:03;8.40;99.90
8792;DHT22;4432;50.890;4.744;2023-02-02T05:51:37;8.40;99.90
8792;DHT22;4432;50.890;4.744;2023-02-02T05:54:03;8.40;99.90
8792;DHT22;4432;50.890;4.744;2023-02-02T05:56:29;8.40;99.90
8792;DHT22;4432;50.890;4.744;2023-02-02T05:58:55;8.40;99.90
8792;DHT22;4432;50.890;4.744;2023-02-02T06:01:21;8.30;99.90
8792;DHT22;4432;50.890;4.744;2023-02-02T06:03:47;8.30;99.90
8792;DHT22;4432;50.890;4.744;2023-02-02T06:06:12;8.30;99.90
8792;DHT22;4432;50.890;4.744;2023-02-02T06:08:38;8.30;99.90
8792;DHT22;4432;50.890;4.744;2023-02-02T06:11:12;8.30;99.90
8792;DHT22;4432;50.890;4.744;2023-02-02T06:13:38;8.30;99.90
8792;DHT22;4432;50.890;4.744;2023-02-02T06:16:04;8.30;99.90
8792;DHT22;4432;50.890;4.744;2023-02-02T06:18:30;8.30;99.90
8792;DHT22;4432;50.890;4.744;2023-02-02T06:20:57;8.30;99.90
8792;DHT22;4432;50.890;4.744;2023-02-02T06:23:24;8.30;99.90
8792;DHT22;4432;50.890;4.744;2023-02-02T06:25:49;8.20;99.90
8792;DHT22;4432;50.890;4.744;2023-02-02T06:28:15;8.20;99.90
8792;DHT22;4432;50.890;4.744;2023-02-02T06:30:41;8.20;99.90
8792;DHT22;4432;50.890;4.744;2023-02-02T06:33:07;8.20;99.90
8792;DHT22;4432;50.890;4.744;2023-02-02T06:35:33;8.10;99.90
8792;DHT22;4432;50.890;4.744;2023-02-02T06:37:59;8.10;99.90
8792;DHT22;4432;50.890;4.744;2023-02-02T06:40:26;8.10;99.90
8792;DHT22;4432;50.890;4.744;2023-02-02T06:42:59;8.10;99.90
8792;DHT22;4432;50.890;4.744;2023-02-02T06:45:25;8.10;99.90
8792;DHT22;4432;50.890;4.744;2023-02-02T06:47:52;8.10;99.90
8792;DHT22;4432;50.890;4.744;2023-02-02T06:50:18;8.10;99.90
8792;DHT22;4432;50.890;4.744;2023-02-02T06:52:48;8.10;99.90
8792;DHT22;4432;50.890;4.744;2023-02-02T06:55:14;8.00;99.90
8792;DHT22;4432;50.890;4.744;2023-02-02T06:57:40;8.00;99.90
8792;DHT22;4432;50.890;4.744;2023-02-02T07:00:06;8.00;99.90
8792;DHT22;4432;50.890;4.744;2023-02-02T07:02:32;8.00;99.90
8792;DHT22;4432;50.890;4.744;2023-02-02T07:04:58;8.00;99.90
8792;DHT22;4432;50.890;4.744;2023-02-02T07:07:24;8.00;99.90
8792;DHT22;4432;50.890;4.744;2023-02-02T07:09:50;8.00;99.90
8792;DHT22;4432;50.890;4.744;2023-02-02T07:12:15;8.00;99.90
8792;DHT22;4432;50.890;4.744;2023-02-02T07:14:44;8.00;99.90
8792;DHT22;4432;50.890;4.744;2023-02-02T07:17:10;8.00;99.90
8792;DHT22;4432;50.890;4.744;2023-02-02T07:19:36;8.00;99.90
8792;DHT22;4432;50.890;4.744;2023-02-02T07:22:02;8.00;99.90
8792;DHT22;4432;50.890;4.744;2023-02-02T07:24:28;8.00;99.90
8792;DHT22;4432;50.890;4.744;2023-02-02T07:26:54;8.00;99.90
8792;DHT22;4432;50.890;4.744;2023-02-02T07:29:20;8.00;99.90
8792;DHT22;4432;50.890;4.744;2023-02-02T07:31:45;8.00;99.90
8792;DHT22;4432;50.890;4.744;2023-02-02T07:34:11;8.00;99.90
8792;DHT22;4432;50.890;4.744;2023-02-02T07:36:37;8.10;99.90
8792;DHT22;4432;50.890;4.744;2023-02-02T07:39:03;8.10;99.90
8792;DHT22;4432;50.890;4.744;2023-02-02T07:41:30;8.00;99.90
8792;DHT22;4432;50.890;4.744;2023-02-02T07:43:56;8.00;99.90
8792;DHT22;4432;50.890;4.744;2023-02-02T07:46:22;8.00;99.90
8792;DHT22;4432;50.890;4.744;2023-02-02T07:48:48;8.10;99.90
8792;DHT22;4432;50.890;4.744;2023-02-02T07:51:15;8.10;99.90
8792;DHT22;4432;50.890;4.744;2023-02-02T07:53:45;8.10;99.90
8792;DHT22;4432;50.890;4.744;2023-02-02T07:56:22;8.10;99.90
8792;DHT22;4432;50.890;4.744;2023-02-02T07:58:51;8.10;99.90
8792;DHT22;4432;50.890;4.744;2023-02-02T08:01:17;8.10;99.90
8792;DHT22;4432;50.890;4.744;2023-02-02T08:03:44;8.10;99.90
8792;DHT22;4432;50.890;4.744;2023-02-02T08:06:17;8.20;99.90
8792;DHT22;4432;50.890;4.744;2023-02-02T08:08:44;8.20;99.90
8792;DHT22;4432;50.890;4.744;2023-02-02T08:11:11;8.20;99.90
8792;DHT22;4432;50.890;4.744;2023-02-02T08:13:39;8.20;99.90
8792;DHT22;4432;50.890;4.744;2023-02-02T08:16:06;8.20;99.90
8792;DHT22;4432;50.890;4.744;2023-02-02T08:18:35;8.30;99.90
8792;DHT22;4432;50.890;4.744;2023-02-02T08:21:02;8.20;99.90
8792;DHT22;4432;50.890;4.744;2023-02-02T08:23:29;8.30;99.90
8792;DHT22;4432;50.890;4.744;2023-02-02T08:26:05;8.30;99.90
8792;DHT22;4432;50.890;4.744;2023-02-02T08:28:31;8.30;99.90
8792;DHT22;4432;50.890;4.744;2023-02-02T08:31:11;8.40;99.90
8792;DHT22;4432;50.890;4.744;2023-02-02T08:33:38;8.40;99.90
8792;DHT22;4432;50.890;4.744;2023-02-02T08:36:04;8.50;99.90
8792;DHT22;4432;50.890;4.744;2023-02-02T08:38:30;8.50;99.90
8792;DHT22;4432;50.890;4.744;2023-02-02T08:41:02;8.60;99.90
8792;DHT22;4432;50.890;4.744;2023-02-02T08:43:28;8.70;99.90
8792;DHT22;4432;50.890;4.744;2023-02-02T08:45:54;8.80;99.90
8792;DHT22;4432;50.890;4.744;2023-02-02T08:48:19;8.80;99.90
8792;DHT22;4432;50.890;4.744;2023-02-02T08:50:54;8.90;99.90
8792;DHT22;4432;50.890;4.744;2023-02-02T08:53:21;8.90;99.90
8792;DHT22;4432;50.890;4.744;2023-02-02T08:55:47;9.00;99.90
8792;DHT22;4432;50.890;4.744;2023-02-02T08:58:13;9.00;99.90
8792;DHT22;4432;50.890;4.744;2023-02-02T09:00:39;9.00;99.90
8792;DHT22;4432;50.890;4.744;2023-02-02T09:03:05;8.90;99.90
8792;DHT22;4432;50.890;4.744;2023-02-02T09:05:31;8.90;99.90
8792;DHT22;4432;50.890;4.744;2023-02-02T09:07:57;8.90;99.90
8792;DHT22;4432;50.890;4.744;2023-02-02T09:10:23;9.00;99.90
8792;DHT22;4432;50.890;4.744;2023-02-02T09:12:48;9.00;99.90
8792;DHT22;4432;50.890;4.744;2023-02-02T09:15:14;9.00;99.90
8792;DHT22;4432;50.890;4.744;2023-02-02T09:17:40;9.10;99.90
8792;DHT22;4432;50.890;4.744;2023-02-02T09:20:06;9.20;99.90
8792;DHT22;4432;50.890;4.744;2023-02-02T09:22:32;9.30;99.90
8792;DHT22;4432;50.890;4.744;2023-02-02T09:24:58;9.30;99.90
8792;DHT22;4432;50.890;4.744;2023-02-02T09:27:23;9.40;99.90
8792;DHT22;4432;50.890;4.744;2023-02-02T09:29:49;9.40;99.90
8792;DHT22;4432;50.890;4.744;2023-02-02T09:32:17;9.40;99.90
8792;DHT22;4432;50.890;4.744;2023-02-02T09:34:43;9.50;99.90
8792;DHT22;4432;50.890;4.744;2023-02-02T09:37:09;9.70;99.90
8792;DHT22;4432;50.890;4.744;2023-02-02T09:39:35;9.90;99.90
8792;DHT22;4432;50.890;4.744;2023-02-02T09:42:05;9.80;99.90
8792;DHT22;4432;50.890;4.744;2023-02-02T09:52:39;9.90;99.90
8792;DHT22;4432;50.890;4.744;2023-02-02T09:57:59;10.00;99.90
8792;DHT22;4432;50.890;4.744;2023-02-02T10:00:49;9.90;99.90
8792;DHT22;4432;50.890;4.744;2023-02-02T10:03:27;9.90;99.90
8792;DHT22;4432;50.890;4.744;2023-02-02T10:14:38;10.10;99.90
8792;DHT22;4432;50.890;4.744;2023-02-02T10:19:47;10.20;99.90
8792;DHT22;4432;50.890;4.744;2023-02-02T10:22:21;10.30;99.90
8792;DHT22;4432;50.890;4.744;2023-02-02T10:24:47;10.30;99.90
8792;DHT22;4432;50.890;4.744;2023-02-02T10:27:15;10.30;99.90
8792;DHT22;4432;50.890;4.744;2023-02-02T10:30:01;10.40;99.90
8792;DHT22;4432;50.890;4.744;2023-02-02T10:42:41;10.50;99.90
8792;DHT22;4432;50.890;4.744;2023-02-02T10:45:19;10.50;99.90
8792;DHT22;4432;50.890;4.744;2023-02-02T10:47:45;10.70;99.90
8792;DHT22;4432;50.890;4.744;2023-02-02T10:52:39;10.70;99.90
8792;DHT22;4432;50.890;4.744;2023-02-02T11:00:35;10.80;99.90
8792;DHT22;4432;50.890;4.744;2023-02-02T11:03:03;10.90;99.90
8792;DHT22;4432;50.890;4.744;2023-02-02T11:05:32;11.10;99.90
8792;DHT22;4432;50.890;4.744;2023-02-02T11:08:27;11.10;99.90
8792;DHT22;4432;50.890;4.744;2023-02-02T11:10:55;11.30;99.90
8792;DHT22;4432;50.890;4.744;2023-02-02T11:13:26;11.50;99.90
8792;DHT22;4432;50.890;4.744;2023-02-02T11:18:42;11.60;99.90
8792;DHT22;4432;50.890;4.744;2023-02-02T11:21:35;11.70;99.90
8792;DHT22;4432;50.890;4.744;2023-02-02T11:24:28;11.80;99.90
8792;DHT22;4432;50.890;4.744;2023-02-02T11:27:02;11.70;99.90
8792;DHT22;4432;50.890;4.744;2023-02-02T11:37:27;12.10;99.90
8792;DHT22;4432;50.890;4.744;2023-02-02T11:39:54;12.10;99.90
8792;DHT22;4432;50.890;4.744;2023-02-02T11:42:45;12.40;99.90
8792;DHT22;4432;50.890;4.744;2023-02-02T11:45:17;12.50;99.90
8792;DHT22;4432;50.890;4.744;2023-02-02T11:47:44;12.50;99.90
8792;DHT22;4432;50.890;4.744;2023-02-02T11:50:25;12.30;99.90
8792;DHT22;4432;50.890;4.744;2023-02-02T11:52:52;12.40;99.90
8792;DHT22;4432;50.890;4.744;2023-02-02T11:55:27;12.50;99.90
8792;DHT22;4432;50.890;4.744;2023-02-02T12:00:46;12.10;99.90
8792;DHT22;4432;50.890;4.744;2023-02-02T12:05:56;11.80;99.90
8792;DHT22;4432;50.890;4.744;2023-02-02T12:08:22;11.60;99.90
8792;DHT22;4432;50.890;4.744;2023-02-02T12:11:02;11.40;99.90
8792;DHT22;4432;50.890;4.744;2023-02-02T12:13:57;11.40;99.90
8792;DHT22;4432;50.890;4.744;2023-02-02T12:16:40;11.40;99.90
8792;DHT22;4432;50.890;4.744;2023-02-02T12:21:55;11.40;99.90
8792;DHT22;4432;50.890;4.744;2023-02-02T12:24:52;11.60;99.90
8792;DHT22;4432;50.890;4.744;2023-02-02T12:27:41;11.80;99.90
8792;DHT22;4432;50.890;4.744;2023-02-02T12:30:16;12.20;99.90
8792;DHT22;4432;50.890;4.744;2023-02-02T12:43:31;12.80;99.90
8792;DHT22;4432;50.890;4.744;2023-02-02T12:49:19;12.80;99.90
8792;DHT22;4432;50.890;4.744;2023-02-02T13:07:51;11.90;99.90
8792;DHT22;4432;50.890;4.744;2023-02-02T13:10:37;11.80;99.90
8792;DHT22;4432;50.890;4.744;2023-02-02T13:13:13;11.90;99.90
8792;DHT22;4432;50.890;4.744;2023-02-02T13:15:51;11.80;99.90
8792;DHT22;4432;50.890;4.744;2023-02-02T13:18:25;11.70;99.90
8792;DHT22;4432;50.890;4.744;2023-02-02T13:20:55;11.90;99.90
8792;DHT22;4432;50.890;4.744;2023-02-02T13:23:26;11.80;99.90
8792;DHT22;4432;50.890;4.744;2023-02-02T13:32:04;11.60;99.90
8792;DHT22;4432;50.890;4.744;2023-02-02T13:34:48;11.70;99.90
8792;DHT22;4432;50.890;4.744;2023-02-02T13:53:55;11.70;99.90
8792;DHT22;4432;50.890;4.744;2023-02-02T13:56:38;11.80;99.90
8792;DHT22;4432;50.890;4.744;2023-02-02T14:01:47;11.90;99.90
8792;DHT22;4432;50.890;4.744;2023-02-02T14:04:40;11.80;99.90
8792;DHT22;4432;50.890;4.744;2023-02-02T14:07:06;11.70;99.90
8792;DHT22;4432;50.890;4.744;2023-02-02T14:09:34;11.60;99.90
8792;DHT22;4432;50.890;4.744;2023-02-02T14:12:04;11.70;99.90
8792;DHT22;4432;50.890;4.744;2023-02-02T14:14:32;11.60;99.90
8792;DHT22;4432;50.890;4.744;2023-02-02T14:19:49;11.60;99.90
8792;DHT22;4432;50.890;4.744;2023-02-02T14:22:18;11.70;99.90
8792;DHT22;4432;50.890;4.744;2023-02-02T14:24:49;11.70;99.90
8792;DHT22;4432;50.890;4.744;2023-02-02T14:42:41;11.10;99.90
8792;DHT22;4432;50.890;4.744;2023-02-02T14:45:29;11.00;99.90
8792;DHT22;4432;50.890;4.744;2023-02-02T14:48:26;11.10;99.90
8792;DHT22;4432;50.890;4.744;2023-02-02T14:50:56;11.10;99.90
8792;DHT22;4432;50.890;4.744;2023-02-02T14:53:30;11.00;99.90
8792;DHT22;4432;50.890;4.744;2023-02-02T14:56:18;10.80;99.90
8792;DHT22;4432;50.890;4.744;2023-02-02T14:58:53;10.60;99.90
8792;DHT22;4432;50.890;4.744;2023-02-02T15:01:24;10.50;99.90
8792;DHT22;4432;50.890;4.744;2023-02-02T15:06:34;10.60;99.90
8792;DHT22;4432;50.890;4.744;2023-02-02T15:20:12;10.30;99.90
8792;DHT22;4432;50.890;4.744;2023-02-02T15:34:39;10.40;99.90
8792;DHT22;4432;50.890;4.744;2023-02-02T15:37:09;10.50;99.90
8792;DHT22;4432;50.890;4.744;2023-02-02T15:39:50;10.50;99.90
8792;DHT22;4432;50.890;4.744;2023-02-02T15:42:24;10.40;99.90
8792;DHT22;4432;50.890;4.744;2023-02-02T15:45:50;10.40;99.90
8792;DHT22;4432;50.890;4.744;2023-02-02T15:48:26;10.40;99.90
8792;DHT22;4432;50.890;4.744;2023-02-02T15:50:59;10.40;99.90
8792;DHT22;4432;50.890;4.744;2023-02-02T15:53:48;10.40;99.90
8792;DHT22;4432;50.890;4.744;2023-02-02T15:56:27;10.40;99.90
8792;DHT22;4432;50.890;4.744;2023-02-02T15:58:56;10.30;99.90
8792;DHT22;4432;50.890;4.744;2023-02-02T16:01:24;10.30;99.90
8792;DHT22;4432;50.890;4.744;2023-02-02T16:03:52;10.30;99.90
8792;DHT22;4432;50.890;4.744;2023-02-02T16:06:20;10.30;99.90
8792;DHT22;4432;50.890;4.744;2023-02-02T16:08:46;10.30;99.90
8792;DHT22;4432;50.890;4.744;2023-02-02T16:11:19;10.30;99.90
8792;DHT22;4432;50.890;4.744;2023-02-02T16:14:04;10.30;99.90
8792;DHT22;4432;50.890;4.744;2023-02-02T16:16:37;10.30;99.90
8792;DHT22;4432;50.890;4.744;2023-02-02T16:22:01;10.20;99.90
8792;DHT22;4432;50.890;4.744;2023-02-02T16:27:01;10.20;99.90
8792;DHT22;4432;50.890;4.744;2023-02-02T16:29:28;10.10;99.90
8792;DHT22;4432;50.890;4.744;2023-02-02T16:31:55;10.10;99.90
8792;DHT22;4432;50.890;4.744;2023-02-02T16:39:39;10.00;99.90
8792;DHT22;4432;50.890;4.744;2023-02-02T16:42:27;9.90;99.90
8792;DHT22;4432;50.890;4.744;2023-02-02T16:44:58;9.90;99.90
8792;DHT22;4432;50.890;4.744;2023-02-02T16:50:26;9.90;99.90
8792;DHT22;4432;50.890;4.744;2023-02-02T16:52:59;9.90;99.90
8792;DHT22;4432;50.890;4.744;2023-02-02T16:55:28;10.00;99.90
8792;DHT22;4432;50.890;4.744;2023-02-02T16:57:55;9.90;99.90
8792;DHT22;4432;50.890;4.744;2023-02-02T17:00:26;9.90;99.90
8792;DHT22;4432;50.890;4.744;2023-02-02T17:03:00;10.00;99.90
8792;DHT22;4432;50.890;4.744;2023-02-02T17:05:48;10.00;99.90
8792;DHT22;4432;50.890;4.744;2023-02-02T17:08:28;10.00;99.90
8792;DHT22;4432;50.890;4.744;2023-02-02T17:13:44;10.00;99.90
8792;DHT22;4432;50.890;4.744;2023-02-02T17:16:15;10.00;99.90
8792;DHT22;4432;50.890;4.744;2023-02-02T17:18:42;10.00;99.90
8792;DHT22;4432;50.890;4.744;2023-02-02T17:21:21;10.00;99.90
8792;DHT22;4432;50.890;4.744;2023-02-02T17:23:50;10.00;99.90
8792;DHT22;4432;50.890;4.744;2023-02-02T17:26:18;10.00;99.90
8792;DHT22;4432;50.890;4.744;2023-02-02T17:28:45;10.00;99.90
8792;DHT22;4432;50.890;4.744;2023-02-02T17:31:13;10.00;99.90
8792;DHT22;4432;50.890;4.744;2023-02-02T17:37:40;10.00;99.90
8792;DHT22;4432;50.890;4.744;2023-02-02T17:40:06;10.00;99.90
8792;DHT22;4432;50.890;4.744;2023-02-02T17:42:32;10.00;99.90
8792;DHT22;4432;50.890;4.744;2023-02-02T17:44:59;10.00;99.90
8792;DHT22;4432;50.890;4.744;2023-02-02T17:47:24;10.00;99.90
8792;DHT22;4432;50.890;4.744;2023-02-02T17:49:50;10.00;99.90
8792;DHT22;4432;50.890;4.744;2023-02-02T17:52:16;9.90;99.90
8792;DHT22;4432;50.890;4.744;2023-02-02T17:54:42;9.90;99.90
8792;DHT22;4432;50.890;4.744;2023-02-02T17:57:07;9.90;99.90
8792;DHT22;4432;50.890;4.744;2023-02-02T17:59:33;9.80;99.90
8792;DHT22;4432;50.890;4.744;2023-02-02T18:02:00;9.80;99.90
8792;DHT22;4432;50.890;4.744;2023-02-02T18:04:26;9.80;99.90
8792;DHT22;4432;50.890;4.744;2023-02-02T18:06:52;9.80;99.90
8792;DHT22;4432;50.890;4.744;2023-02-02T18:09:17;9.80;99.90
8792;DHT22;4432;50.890;4.744;2023-02-02T18:11:43;9.70;99.90
8792;DHT22;4432;50.890;4.744;2023-02-02T18:14:14;9.70;99.90
8792;DHT22;4432;50.890;4.744;2023-02-02T18:16:40;9.70;99.90
8792;DHT22;4432;50.890;4.744;2023-02-02T18:19:05;9.60;99.90
8792;DHT22;4432;50.890;4.744;2023-02-02T18:21:31;9.50;99.90
8792;DHT22;4432;50.890;4.744;2023-02-02T18:23:57;9.40;99.90
8792;DHT22;4432;50.890;4.744;2023-02-02T18:26:23;9.30;99.90
8792;DHT22;4432;50.890;4.744;2023-02-02T18:28:50;9.20;99.90
8792;DHT22;4432;50.890;4.744;2023-02-02T18:31:18;9.10;99.90
8792;DHT22;4432;50.890;4.744;2023-02-02T18:33:45;9.00;99.90
8792;DHT22;4432;50.890;4.744;2023-02-02T18:36:16;9.00;99.90
8792;DHT22;4432;50.890;4.744;2023-02-02T18:38:45;9.10;99.90
8792;DHT22;4432;50.890;4.744;2023-02-02T18:41:12;9.20;99.90
8792;DHT22;4432;50.890;4.744;2023-02-02T18:43:38;9.20;99.90
8792;DHT22;4432;50.890;4.744;2023-02-02T18:46:05;9.30;99.90
8792;DHT22;4432;50.890;4.744;2023-02-02T18:48:33;9.30;99.90
8792;DHT22;4432;50.890;4.744;2023-02-02T18:51:07;9.40;99.90
8792;DHT22;4432;50.890;4.744;2023-02-02T18:53:33;9.40;99.90
8792;DHT22;4432;50.890;4.744;2023-02-02T18:56:06;9.40;99.90
8792;DHT22;4432;50.890;4.744;2023-02-02T18:58:36;9.40;99.90
8792;DHT22;4432;50.890;4.744;2023-02-02T19:01:20;9.40;99.90
8792;DHT22;4432;50.890;4.744;2023-02-02T19:03:52;9.40;99.90
8792;DHT22;4432;50.890;4.744;2023-02-02T19:06:19;9.50;99.90
8792;DHT22;4432;50.890;4.744;2023-02-02T19:09:05;9.50;99.90
8792;DHT22;4432;50.890;4.744;2023-02-02T19:11:38;9.50;99.90
8792;DHT22;4432;50.890;4.744;2023-02-02T19:16:39;9.50;99.90
8792;DHT22;4432;50.890;4.744;2023-02-02T19:21:48;9.50;99.90
8792;DHT22;4432;50.890;4.744;2023-02-02T19:24:15;9.60;99.90
8792;DHT22;4432;50.890;4.744;2023-02-02T19:26:44;9.60;99.90
8792;DHT22;4432;50.890;4.744;2023-02-02T19:29:22;9.60;99.90
8792;DHT22;4432;50.890;4.744;2023-02-02T19:31:52;9.60;99.90
8792;DHT22;4432;50.890;4.744;2023-02-02T19:34:21;9.60;99.90
8792;DHT22;4432;50.890;4.744;2023-02-02T19:36:47;9.60;99.90
8792;DHT22;4432;50.890;4.744;2023-02-02T19:39:20;9.60;99.90
8792;DHT22;4432;50.890;4.744;2023-02-02T19:41:50;9.60;99.90
8792;DHT22;4432;50.890;4.744;2023-02-02T19:44:18;9.60;99.90
8792;DHT22;4432;50.890;4.744;2023-02-02T19:46:47;9.60;99.90
8792;DHT22;4432;50.890;4.744;2023-02-02T19:49:23;9.70;99.90
8792;DHT22;4432;50.890;4.744;2023-02-02T19:51:55;9.70;99.90
8792;DHT22;4432;50.890;4.744;2023-02-02T19:54:33;9.70;99.90
8792;DHT22;4432;50.890;4.744;2023-02-02T19:57:20;9.70;99.90